Terminal Aerodrome Forecast
Issued by NWS

Home | Current Version | Previous Version | Text Only | Print | Product List | Glossary On
Versions: 1 2 3 4 5 6 7 8 9 10 11 12 13 14
000
FTUS43 KJKL 211120
TAFSME
TAF
KSME 211120Z 2112/2212 VRB03KT P6SM SKC
     FM211300 VRB04KT P6SM FEW250
     FM211500 21009G19KT P6SM SCT040
     FM212300 VRB05KT P6SM FEW250
     FM220900 35007KT P6SM BKN080=

USA.gov is the U.S. government's official web portal to all federal, state and local government web resources and services.